sensor_id;sensor_type;location;lat;lon;timestamp;P1;durP1;ratioP1;P2;durP2;ratioP2
20283;SDS011;10301;50.832;4.080;2023-12-04T00:00:34;12.53;;;6.87;;
20283;SDS011;10301;50.832;4.080;2023-12-04T00:02:59;11.90;;;6.70;;
20283;SDS011;10301;50.832;4.080;2023-12-04T00:05:25;12.07;;;6.30;;
20283;SDS011;10301;50.832;4.080;2023-12-04T00:07:51;12.97;;;6.97;;
20283;SDS011;10301;50.832;4.080;2023-12-04T00:10:16;14.90;;;6.60;;
20283;SDS011;10301;50.832;4.080;2023-12-04T00:12:42;11.00;;;5.87;;
20283;SDS011;10301;50.832;4.080;2023-12-04T00:15:08;12.60;;;6.23;;
20283;SDS011;10301;50.832;4.080;2023-12-04T00:17:34;13.27;;;6.13;;
20283;SDS011;10301;50.832;4.080;2023-12-04T00:20:04;11.70;;;6.03;;
20283;SDS011;10301;50.832;4.080;2023-12-04T00:22:34;11.87;;;5.80;;
20283;SDS011;10301;50.832;4.080;2023-12-04T00:25:01;13.47;;;6.53;;
20283;SDS011;10301;50.832;4.080;2023-12-04T00:27:28;13.87;;;6.53;;
20283;SDS011;10301;50.832;4.080;2023-12-04T00:29:54;13.30;;;6.30;;
20283;SDS011;10301;50.832;4.080;2023-12-04T00:32:20;11.90;;;6.13;;
20283;SDS011;10301;50.832;4.080;2023-12-04T00:34:45;11.53;;;5.77;;
20283;SDS011;10301;50.832;4.080;2023-12-04T00:37:11;11.30;;;6.00;;
20283;SDS011;10301;50.832;4.080;2023-12-04T00:39:37;11.00;;;6.03;;
20283;SDS011;10301;50.832;4.080;2023-12-04T00:42:02;12.80;;;6.30;;
20283;SDS011;10301;50.832;4.080;2023-12-04T00:44:28;12.10;;;5.70;;
20283;SDS011;10301;50.832;4.080;2023-12-04T00:46:54;14.33;;;5.87;;
20283;SDS011;10301;50.832;4.080;2023-12-04T00:49:19;10.60;;;6.00;;
20283;SDS011;10301;50.832;4.080;2023-12-04T00:51:45;10.57;;;5.70;;
20283;SDS011;10301;50.832;4.080;2023-12-04T00:54:11;11.20;;;5.80;;
20283;SDS011;10301;50.832;4.080;2023-12-04T00:56:39;11.90;;;6.07;;
20283;SDS011;10301;50.832;4.080;2023-12-04T00:59:07;13.13;;;5.57;;
20283;SDS011;10301;50.832;4.080;2023-12-04T01:01:33;10.73;;;5.97;;
20283;SDS011;10301;50.832;4.080;2023-12-04T01:04:00;11.93;;;6.13;;
20283;SDS011;10301;50.832;4.080;2023-12-04T01:06:26;11.50;;;5.80;;
20283;SDS011;10301;50.832;4.080;2023-12-04T01:08:52;10.93;;;5.27;;
20283;SDS011;10301;50.832;4.080;2023-12-04T01:11:19;11.70;;;6.07;;
20283;SDS011;10301;50.832;4.080;2023-12-04T01:13:45;10.87;;;6.00;;
20283;SDS011;10301;50.832;4.080;2023-12-04T01:16:11;13.10;;;5.70;;
20283;SDS011;10301;50.832;4.080;2023-12-04T01:18:37;10.53;;;5.40;;
20283;SDS011;10301;50.832;4.080;2023-12-04T01:21:03;12.53;;;6.13;;
20283;SDS011;10301;50.832;4.080;2023-12-04T01:23:28;11.70;;;5.93;;
20283;SDS011;10301;50.832;4.080;2023-12-04T01:25:54;10.00;;;5.17;;
20283;SDS011;10301;50.832;4.080;2023-12-04T01:28:20;10.77;;;5.73;;
20283;SDS011;10301;50.832;4.080;2023-12-04T01:30:45;11.43;;;5.63;;
20283;SDS011;10301;50.832;4.080;2023-12-04T01:33:11;10.97;;;5.57;;
20283;SDS011;10301;50.832;4.080;2023-12-04T01:35:37;12.27;;;5.90;;
20283;SDS011;10301;50.832;4.080;2023-12-04T01:38:02;10.30;;;5.40;;
20283;SDS011;10301;50.832;4.080;2023-12-04T01:40:28;11.17;;;5.43;;
20283;SDS011;10301;50.832;4.080;2023-12-04T01:42:54;10.77;;;5.23;;
20283;SDS011;10301;50.832;4.080;2023-12-04T01:45:19;10.73;;;4.97;;
20283;SDS011;10301;50.832;4.080;2023-12-04T01:47:45;11.03;;;5.70;;
20283;SDS011;10301;50.832;4.080;2023-12-04T01:50:11;10.77;;;5.87;;
20283;SDS011;10301;50.832;4.080;2023-12-04T01:52:38;11.13;;;5.77;;
20283;SDS011;10301;50.832;4.080;2023-12-04T01:55:05;10.67;;;5.73;;
20283;SDS011;10301;50.832;4.080;2023-12-04T01:57:33;12.07;;;5.70;;
20283;SDS011;10301;50.832;4.080;2023-12-04T01:59:59;10.30;;;4.70;;
20283;SDS011;10301;50.832;4.080;2023-12-04T02:02:25;11.30;;;5.53;;
20283;SDS011;10301;50.832;4.080;2023-12-04T02:04:51;10.23;;;5.60;;
20283;SDS011;10301;50.832;4.080;2023-12-04T02:07:22;12.70;;;6.23;;
20283;SDS011;10301;50.832;4.080;2023-12-04T02:09:48;11.00;;;5.77;;
20283;SDS011;10301;50.832;4.080;2023-12-04T02:12:14;10.50;;;5.70;;
20283;SDS011;10301;50.832;4.080;2023-12-04T02:14:40;10.67;;;5.37;;
20283;SDS011;10301;50.832;4.080;2023-12-04T02:17:05;12.27;;;6.13;;
20283;SDS011;10301;50.832;4.080;2023-12-04T02:19:33;10.87;;;5.53;;
20283;SDS011;10301;50.832;4.080;2023-12-04T02:21:59;12.57;;;6.30;;
20283;SDS011;10301;50.832;4.080;2023-12-04T02:24:24;9.77;;;5.40;;
20283;SDS011;10301;50.832;4.080;2023-12-04T02:26:58;10.53;;;5.90;;
20283;SDS011;10301;50.832;4.080;2023-12-04T02:29:30;11.10;;;5.50;;
20283;SDS011;10301;50.832;4.080;2023-12-04T02:31:59;10.37;;;5.30;;
20283;SDS011;10301;50.832;4.080;2023-12-04T02:34:27;12.37;;;5.77;;
20283;SDS011;10301;50.832;4.080;2023-12-04T02:36:55;11.83;;;5.07;;
20283;SDS011;10301;50.832;4.080;2023-12-04T02:39:22;13.23;;;4.97;;
20283;SDS011;10301;50.832;4.080;2023-12-04T02:41:48;12.27;;;5.57;;
20283;SDS011;10301;50.832;4.080;2023-12-04T02:44:14;10.07;;;5.10;;
20283;SDS011;10301;50.832;4.080;2023-12-04T02:46:40;9.73;;;4.93;;
20283;SDS011;10301;50.832;4.080;2023-12-04T02:49:05;11.33;;;5.33;;
20283;SDS011;10301;50.832;4.080;2023-12-04T02:51:31;9.67;;;5.23;;
20283;SDS011;10301;50.832;4.080;2023-12-04T02:53:56;9.83;;;4.80;;
20283;SDS011;10301;50.832;4.080;2023-12-04T02:56:22;13.07;;;5.27;;
20283;SDS011;10301;50.832;4.080;2023-12-04T02:58:48;10.23;;;5.23;;
20283;SDS011;10301;50.832;4.080;2023-12-04T03:01:13;10.40;;;5.67;;
20283;SDS011;10301;50.832;4.080;2023-12-04T03:03:39;9.10;;;4.47;;
20283;SDS011;10301;50.832;4.080;2023-12-04T03:06:05;12.53;;;5.60;;
20283;SDS011;10301;50.832;4.080;2023-12-04T03:08:31;10.47;;;4.97;;
20283;SDS011;10301;50.832;4.080;2023-12-04T03:10:56;10.47;;;5.17;;
20283;SDS011;10301;50.832;4.080;2023-12-04T03:13:22;11.00;;;4.47;;
20283;SDS011;10301;50.832;4.080;2023-12-04T03:15:48;11.30;;;4.80;;
20283;SDS011;10301;50.832;4.080;2023-12-04T03:18:13;9.80;;;5.43;;
20283;SDS011;10301;50.832;4.080;2023-12-04T03:20:39;8.90;;;4.97;;
20283;SDS011;10301;50.832;4.080;2023-12-04T03:23:05;8.93;;;4.57;;
20283;SDS011;10301;50.832;4.080;2023-12-04T03:25:30;9.23;;;4.67;;
20283;SDS011;10301;50.832;4.080;2023-12-04T03:27:56;10.97;;;4.97;;
20283;SDS011;10301;50.832;4.080;2023-12-04T03:30:21;11.00;;;5.30;;
20283;SDS011;10301;50.832;4.080;2023-12-04T03:32:47;9.67;;;5.07;;
20283;SDS011;10301;50.832;4.080;2023-12-04T03:35:13;9.47;;;5.10;;
20283;SDS011;10301;50.832;4.080;2023-12-04T03:37:38;11.57;;;5.83;;
20283;SDS011;10301;50.832;4.080;2023-12-04T03:40:04;11.30;;;5.03;;
20283;SDS011;10301;50.832;4.080;2023-12-04T03:42:30;10.07;;;4.80;;
20283;SDS011;10301;50.832;4.080;2023-12-04T03:44:56;9.73;;;4.83;;
20283;SDS011;10301;50.832;4.080;2023-12-04T03:47:21;10.73;;;4.73;;
20283;SDS011;10301;50.832;4.080;2023-12-04T03:49:48;10.87;;;5.10;;
20283;SDS011;10301;50.832;4.080;2023-12-04T03:52:14;12.60;;;5.30;;
20283;SDS011;10301;50.832;4.080;2023-12-04T03:54:39;9.03;;;4.97;;
20283;SDS011;10301;50.832;4.080;2023-12-04T03:57:05;10.80;;;4.73;;
20283;SDS011;10301;50.832;4.080;2023-12-04T03:59:31;8.70;;;4.57;;
20283;SDS011;10301;50.832;4.080;2023-12-04T04:01:56;12.53;;;5.30;;
20283;SDS011;10301;50.832;4.080;2023-12-04T04:04:22;9.83;;;4.50;;
20283;SDS011;10301;50.832;4.080;2023-12-04T04:06:48;9.33;;;4.67;;
20283;SDS011;10301;50.832;4.080;2023-12-04T04:09:13;8.80;;;4.40;;
20283;SDS011;10301;50.832;4.080;2023-12-04T04:11:39;8.37;;;4.43;;
20283;SDS011;10301;50.832;4.080;2023-12-04T04:14:05;9.57;;;4.27;;
20283;SDS011;10301;50.832;4.080;2023-12-04T04:16:31;7.50;;;4.37;;
20283;SDS011;10301;50.832;4.080;2023-12-04T04:18:56;9.47;;;4.73;;
20283;SDS011;10301;50.832;4.080;2023-12-04T04:21:22;9.73;;;5.00;;
20283;SDS011;10301;50.832;4.080;2023-12-04T04:23:48;8.43;;;4.80;;
20283;SDS011;10301;50.832;4.080;2023-12-04T04:26:13;8.67;;;4.80;;
20283;SDS011;10301;50.832;4.080;2023-12-04T04:28:39;10.07;;;5.27;;
20283;SDS011;10301;50.832;4.080;2023-12-04T04:31:05;8.50;;;4.33;;
20283;SDS011;10301;50.832;4.080;2023-12-04T04:33:30;12.17;;;5.00;;
20283;SDS011;10301;50.832;4.080;2023-12-04T04:35:56;10.27;;;4.90;;
20283;SDS011;10301;50.832;4.080;2023-12-04T04:38:22;8.53;;;4.33;;
20283;SDS011;10301;50.832;4.080;2023-12-04T04:40:47;10.23;;;4.67;;
20283;SDS011;10301;50.832;4.080;2023-12-04T04:43:13;10.17;;;4.73;;
20283;SDS011;10301;50.832;4.080;2023-12-04T04:45:39;8.23;;;4.60;;
20283;SDS011;10301;50.832;4.080;2023-12-04T04:48:04;9.20;;;4.63;;
20283;SDS011;10301;50.832;4.080;2023-12-04T04:50:30;8.67;;;4.43;;
20283;SDS011;10301;50.832;4.080;2023-12-04T04:52:56;9.33;;;4.70;;
20283;SDS011;10301;50.832;4.080;2023-12-04T04:55:21;8.47;;;4.57;;
20283;SDS011;10301;50.832;4.080;2023-12-04T04:57:47;8.47;;;4.70;;
20283;SDS011;10301;50.832;4.080;2023-12-04T05:00:12;8.67;;;4.53;;
20283;SDS011;10301;50.832;4.080;2023-12-04T05:02:39;6.80;;;3.83;;
20283;SDS011;10301;50.832;4.080;2023-12-04T05:05:06;8.63;;;4.70;;
20283;SDS011;10301;50.832;4.080;2023-12-04T05:07:32;9.43;;;4.23;;
20283;SDS011;10301;50.832;4.080;2023-12-04T05:09:57;8.30;;;4.00;;
20283;SDS011;10301;50.832;4.080;2023-12-04T05:12:23;7.50;;;4.20;;
20283;SDS011;10301;50.832;4.080;2023-12-04T05:14:49;9.70;;;4.90;;
20283;SDS011;10301;50.832;4.080;2023-12-04T05:17:14;12.47;;;4.10;;
20283;SDS011;10301;50.832;4.080;2023-12-04T05:19:40;9.57;;;4.83;;
20283;SDS011;10301;50.832;4.080;2023-12-04T05:22:05;8.07;;;4.00;;
20283;SDS011;10301;50.832;4.080;2023-12-04T05:24:31;7.43;;;3.90;;
20283;SDS011;10301;50.832;4.080;2023-12-04T05:26:57;8.30;;;4.20;;
20283;SDS011;10301;50.832;4.080;2023-12-04T05:29:23;9.77;;;4.57;;
20283;SDS011;10301;50.832;4.080;2023-12-04T05:31:49;6.87;;;3.73;;
20283;SDS011;10301;50.832;4.080;2023-12-04T05:34:14;8.53;;;4.83;;
20283;SDS011;10301;50.832;4.080;2023-12-04T05:36:40;8.17;;;4.37;;
20283;SDS011;10301;50.832;4.080;2023-12-04T05:39:06;7.47;;;4.30;;
20283;SDS011;10301;50.832;4.080;2023-12-04T05:41:32;7.63;;;4.13;;
20283;SDS011;10301;50.832;4.080;2023-12-04T05:43:57;9.37;;;4.83;;
20283;SDS011;10301;50.832;4.080;2023-12-04T05:46:23;8.40;;;4.13;;
20283;SDS011;10301;50.832;4.080;2023-12-04T05:48:49;8.43;;;4.20;;
20283;SDS011;10301;50.832;4.080;2023-12-04T05:51:14;8.27;;;4.20;;
20283;SDS011;10301;50.832;4.080;2023-12-04T05:53:40;7.93;;;3.83;;
20283;SDS011;10301;50.832;4.080;2023-12-04T05:56:06;6.60;;;3.90;;
20283;SDS011;10301;50.832;4.080;2023-12-04T05:58:34;9.03;;;3.70;;
20283;SDS011;10301;50.832;4.080;2023-12-04T06:01:00;8.20;;;3.83;;
20283;SDS011;10301;50.832;4.080;2023-12-04T06:03:26;6.90;;;3.93;;
20283;SDS011;10301;50.832;4.080;2023-12-04T06:05:51;8.33;;;4.23;;
20283;SDS011;10301;50.832;4.080;2023-12-04T06:08:17;6.17;;;3.90;;
20283;SDS011;10301;50.832;4.080;2023-12-04T06:10:43;9.13;;;4.60;;
20283;SDS011;10301;50.832;4.080;2023-12-04T06:13:08;7.70;;;4.10;;
20283;SDS011;10301;50.832;4.080;2023-12-04T06:15:34;6.67;;;3.93;;
20283;SDS011;10301;50.832;4.080;2023-12-04T06:18:00;7.43;;;3.77;;
20283;SDS011;10301;50.832;4.080;2023-12-04T06:20:25;6.97;;;4.00;;
20283;SDS011;10301;50.832;4.080;2023-12-04T06:22:51;7.57;;;4.50;;
20283;SDS011;10301;50.832;4.080;2023-12-04T06:25:17;9.57;;;4.23;;
20283;SDS011;10301;50.832;4.080;2023-12-04T06:27:43;6.20;;;3.90;;
20283;SDS011;10301;50.832;4.080;2023-12-04T06:30:09;7.33;;;4.10;;
20283;SDS011;10301;50.832;4.080;2023-12-04T06:32:35;6.27;;;3.70;;
20283;SDS011;10301;50.832;4.080;2023-12-04T06:35:01;5.83;;;3.50;;
20283;SDS011;10301;50.832;4.080;2023-12-04T06:37:28;7.67;;;3.50;;
20283;SDS011;10301;50.832;4.080;2023-12-04T06:39:54;7.33;;;4.13;;
20283;SDS011;10301;50.832;4.080;2023-12-04T06:42:22;7.10;;;3.90;;
20283;SDS011;10301;50.832;4.080;2023-12-04T06:44:48;9.57;;;4.10;;
20283;SDS011;10301;50.832;4.080;2023-12-04T06:47:13;8.33;;;4.03;;
20283;SDS011;10301;50.832;4.080;2023-12-04T06:49:45;8.13;;;3.53;;
20283;SDS011;10301;50.832;4.080;2023-12-04T06:52:11;7.00;;;4.30;;
20283;SDS011;10301;50.832;4.080;2023-12-04T06:54:37;8.50;;;4.37;;
20283;SDS011;10301;50.832;4.080;2023-12-04T06:57:02;8.10;;;3.50;;
20283;SDS011;10301;50.832;4.080;2023-12-04T06:59:28;10.20;;;3.90;;
20283;SDS011;10301;50.832;4.080;2023-12-04T07:01:54;7.50;;;4.40;;
20283;SDS011;10301;50.832;4.080;2023-12-04T07:04:20;7.37;;;4.00;;
20283;SDS011;10301;50.832;4.080;2023-12-04T07:06:47;7.53;;;4.10;;
20283;SDS011;10301;50.832;4.080;2023-12-04T07:09:15;8.97;;;4.23;;
20283;SDS011;10301;50.832;4.080;2023-12-04T07:11:45;8.03;;;4.23;;
20283;SDS011;10301;50.832;4.080;2023-12-04T07:14:11;7.70;;;3.90;;
20283;SDS011;10301;50.832;4.080;2023-12-04T07:16:40;9.90;;;4.50;;
20283;SDS011;10301;50.832;4.080;2023-12-04T07:19:07;8.00;;;4.07;;
20283;SDS011;10301;50.832;4.080;2023-12-04T07:21:33;8.07;;;4.53;;
20283;SDS011;10301;50.832;4.080;2023-12-04T07:23:59;7.80;;;4.70;;
20283;SDS011;10301;50.832;4.080;2023-12-04T07:26:24;7.30;;;4.30;;
20283;SDS011;10301;50.832;4.080;2023-12-04T07:28:50;10.33;;;5.30;;
20283;SDS011;10301;50.832;4.080;2023-12-04T07:31:16;7.57;;;4.33;;
20283;SDS011;10301;50.832;4.080;2023-12-04T07:33:41;9.27;;;5.10;;
20283;SDS011;10301;50.832;4.080;2023-12-04T07:36:07;8.50;;;4.70;;
20283;SDS011;10301;50.832;4.080;2023-12-04T07:38:33;9.13;;;4.30;;
20283;SDS011;10301;50.832;4.080;2023-12-04T07:40:58;8.87;;;5.17;;
20283;SDS011;10301;50.832;4.080;2023-12-04T07:43:24;8.43;;;4.47;;
20283;SDS011;10301;50.832;4.080;2023-12-04T07:45:50;8.00;;;4.83;;
20283;SDS011;10301;50.832;4.080;2023-12-04T07:48:15;8.53;;;4.53;;
20283;SDS011;10301;50.832;4.080;2023-12-04T07:50:42;9.00;;;4.83;;
20283;SDS011;10301;50.832;4.080;2023-12-04T07:53:07;7.83;;;4.67;;
20283;SDS011;10301;50.832;4.080;2023-12-04T07:55:35;8.50;;;5.00;;
20283;SDS011;10301;50.832;4.080;2023-12-04T07:58:00;10.10;;;5.90;;
20283;SDS011;10301;50.832;4.080;2023-12-04T08:00:26;9.90;;;6.00;;
20283;SDS011;10301;50.832;4.080;2023-12-04T08:02:51;11.93;;;5.73;;
20283;SDS011;10301;50.832;4.080;2023-12-04T08:05:17;10.37;;;5.73;;
20283;SDS011;10301;50.832;4.080;2023-12-04T08:07:43;9.10;;;5.97;;
20283;SDS011;10301;50.832;4.080;2023-12-04T08:10:08;9.80;;;5.30;;
20283;SDS011;10301;50.832;4.080;2023-12-04T08:12:34;8.30;;;4.90;;
20283;SDS011;10301;50.832;4.080;2023-12-04T08:15:00;9.17;;;5.50;;
20283;SDS011;10301;50.832;4.080;2023-12-04T08:17:26;8.60;;;5.10;;
20283;SDS011;10301;50.832;4.080;2023-12-04T08:19:52;8.90;;;5.47;;
20283;SDS011;10301;50.832;4.080;2023-12-04T08:22:19;9.97;;;5.60;;
20283;SDS011;10301;50.832;4.080;2023-12-04T08:24:44;10.07;;;5.83;;
20283;SDS011;10301;50.832;4.080;2023-12-04T08:27:10;9.50;;;4.93;;
20283;SDS011;10301;50.832;4.080;2023-12-04T08:29:36;8.87;;;4.80;;
20283;SDS011;10301;50.832;4.080;2023-12-04T08:32:01;9.60;;;5.07;;
20283;SDS011;10301;50.832;4.080;2023-12-04T08:34:27;10.03;;;6.10;;
20283;SDS011;10301;50.832;4.080;2023-12-04T08:36:53;10.77;;;5.30;;
20283;SDS011;10301;50.832;4.080;2023-12-04T08:39:18;10.17;;;5.37;;
20283;SDS011;10301;50.832;4.080;2023-12-04T08:41:45;10.37;;;5.57;;
20283;SDS011;10301;50.832;4.080;2023-12-04T08:44:12;9.10;;;5.30;;
20283;SDS011;10301;50.832;4.080;2023-12-04T08:46:38;10.40;;;5.60;;
20283;SDS011;10301;50.832;4.080;2023-12-04T08:49:04;9.73;;;5.50;;
20283;SDS011;10301;50.832;4.080;2023-12-04T08:51:30;10.67;;;5.63;;
20283;SDS011;10301;50.832;4.080;2023-12-04T08:53:56;10.50;;;5.67;;
20283;SDS011;10301;50.832;4.080;2023-12-04T08:56:22;9.37;;;5.40;;
20283;SDS011;10301;50.832;4.080;2023-12-04T08:58:48;10.57;;;5.57;;
20283;SDS011;10301;50.832;4.080;2023-12-04T09:01:15;10.33;;;5.90;;
20283;SDS011;10301;50.832;4.080;2023-12-04T09:03:41;9.40;;;5.60;;
20283;SDS011;10301;50.832;4.080;2023-12-04T09:06:07;11.70;;;5.53;;
20283;SDS011;10301;50.832;4.080;2023-12-04T09:08:34;10.53;;;6.23;;
20283;SDS011;10301;50.832;4.080;2023-12-04T09:10:59;9.57;;;6.00;;
20283;SDS011;10301;50.832;4.080;2023-12-04T09:13:25;11.03;;;6.27;;
20283;SDS011;10301;50.832;4.080;2023-12-04T09:15:51;10.77;;;6.10;;
20283;SDS011;10301;50.832;4.080;2023-12-04T09:18:17;11.07;;;5.77;;
20283;SDS011;10301;50.832;4.080;2023-12-04T09:20:43;10.13;;;6.00;;
20283;SDS011;10301;50.832;4.080;2023-12-04T09:23:08;9.83;;;5.60;;
20283;SDS011;10301;50.832;4.080;2023-12-04T09:25:35;11.00;;;6.40;;
20283;SDS011;10301;50.832;4.080;2023-12-04T09:28:01;12.60;;;7.03;;
20283;SDS011;10301;50.832;4.080;2023-12-04T09:30:27;10.50;;;5.93;;
20283;SDS011;10301;50.832;4.080;2023-12-04T09:32:53;10.43;;;5.63;;
20283;SDS011;10301;50.832;4.080;2023-12-04T09:35:19;9.80;;;5.70;;
20283;SDS011;10301;50.832;4.080;2023-12-04T09:37:45;12.43;;;6.27;;
20283;SDS011;10301;50.832;4.080;2023-12-04T09:40:11;10.97;;;6.27;;
20283;SDS011;10301;50.832;4.080;2023-12-04T09:42:37;11.10;;;6.20;;
20283;SDS011;10301;50.832;4.080;2023-12-04T09:45:04;11.37;;;6.13;;
20283;SDS011;10301;50.832;4.080;2023-12-04T09:47:32;10.57;;;5.77;;
20283;SDS011;10301;50.832;4.080;2023-12-04T09:49:59;10.97;;;6.17;;
20283;SDS011;10301;50.832;4.080;2023-12-04T09:52:27;11.87;;;5.63;;
20283;SDS011;10301;50.832;4.080;2023-12-04T09:54:53;11.80;;;5.77;;
20283;SDS011;10301;50.832;4.080;2023-12-04T09:57:18;12.20;;;6.07;;
20283;SDS011;10301;50.832;4.080;2023-12-04T09:59:44;8.97;;;5.83;;
20283;SDS011;10301;50.832;4.080;2023-12-04T10:02:11;10.37;;;6.50;;
20283;SDS011;10301;50.832;4.080;2023-12-04T10:04:37;9.47;;;5.53;;
20283;SDS011;10301;50.832;4.080;2023-12-04T10:07:02;10.90;;;5.93;;
20283;SDS011;10301;50.832;4.080;2023-12-04T10:09:29;12.27;;;5.80;;
20283;SDS011;10301;50.832;4.080;2023-12-04T10:11:58;11.53;;;6.43;;
20283;SDS011;10301;50.832;4.080;2023-12-04T10:14:24;12.97;;;6.37;;
20283;SDS011;10301;50.832;4.080;2023-12-04T10:16:50;13.40;;;6.37;;
20283;SDS011;10301;50.832;4.080;2023-12-04T10:19:19;10.70;;;5.83;;
20283;SDS011;10301;50.832;4.080;2023-12-04T10:21:51;10.03;;;5.70;;
20283;SDS011;10301;50.832;4.080;2023-12-04T10:24:32;10.03;;;5.90;;
20283;SDS011;10301;50.832;4.080;2023-12-04T10:27:02;10.73;;;6.60;;
20283;SDS011;10301;50.832;4.080;2023-12-04T10:29:48;11.00;;;6.77;;
20283;SDS011;10301;50.832;4.080;2023-12-04T10:32:20;11.97;;;5.80;;
20283;SDS011;10301;50.832;4.080;2023-12-04T10:34:46;11.37;;;6.43;;
20283;SDS011;10301;50.832;4.080;2023-12-04T10:37:13;11.60;;;6.20;;
20283;SDS011;10301;50.832;4.080;2023-12-04T10:39:49;10.40;;;6.30;;
20283;SDS011;10301;50.832;4.080;2023-12-04T10:42:37;11.80;;;6.13;;
20283;SDS011;10301;50.832;4.080;2023-12-04T10:45:01;9.60;;;5.53;;
20283;SDS011;10301;50.832;4.080;2023-12-04T10:47:28;10.27;;;5.93;;
20283;SDS011;10301;50.832;4.080;2023-12-04T10:49:58;13.10;;;6.87;;
20283;SDS011;10301;50.832;4.080;2023-12-04T10:52:23;11.17;;;6.40;;
20283;SDS011;10301;50.832;4.080;2023-12-04T10:54:49;10.03;;;6.37;;
20283;SDS011;10301;50.832;4.080;2023-12-04T10:57:37;12.73;;;11.43;;
20283;SDS011;10301;50.832;4.080;2023-12-04T11:00:04;11.90;;;5.93;;
20283;SDS011;10301;50.832;4.080;2023-12-04T11:02:33;11.60;;;6.23;;
20283;SDS011;10301;50.832;4.080;2023-12-04T11:05:08;9.90;;;5.97;;
20283;SDS011;10301;50.832;4.080;2023-12-04T11:07:42;11.47;;;6.13;;
20283;SDS011;10301;50.832;4.080;2023-12-04T11:10:12;8.63;;;5.97;;
20283;SDS011;10301;50.832;4.080;2023-12-04T11:12:39;10.87;;;6.53;;
20283;SDS011;10301;50.832;4.080;2023-12-04T11:15:09;10.17;;;6.10;;
20283;SDS011;10301;50.832;4.080;2023-12-04T11:17:39;12.33;;;7.00;;
20283;SDS011;10301;50.832;4.080;2023-12-04T11:20:12;10.67;;;5.90;;
20283;SDS011;10301;50.832;4.080;2023-12-04T11:22:43;11.83;;;7.87;;
20283;SDS011;10301;50.832;4.080;2023-12-04T11:25:11;10.00;;;6.07;;
20283;SDS011;10301;50.832;4.080;2023-12-04T11:27:39;11.57;;;8.90;;
20283;SDS011;10301;50.832;4.080;2023-12-04T11:30:06;10.03;;;6.40;;
20283;SDS011;10301;50.832;4.080;2023-12-04T11:32:43;10.20;;;6.03;;
20283;SDS011;10301;50.832;4.080;2023-12-04T11:35:17;9.87;;;5.27;;
20283;SDS011;10301;50.832;4.080;2023-12-04T11:37:46;11.03;;;6.30;;
20283;SDS011;10301;50.832;4.080;2023-12-04T11:40:16;10.10;;;6.23;;
20283;SDS011;10301;50.832;4.080;2023-12-04T11:42:42;12.07;;;5.97;;
20283;SDS011;10301;50.832;4.080;2023-12-04T11:45:08;9.60;;;5.80;;
20283;SDS011;10301;50.832;4.080;2023-12-04T11:50:25;9.50;;;5.77;;
20283;SDS011;10301;50.832;4.080;2023-12-04T11:52:51;10.20;;;5.37;;
20283;SDS011;10301;50.832;4.080;2023-12-04T11:55:18;10.00;;;5.93;;
20283;SDS011;10301;50.832;4.080;2023-12-04T11:57:47;11.63;;;5.03;;
20283;SDS011;10301;50.832;4.080;2023-12-04T12:05:21;10.30;;;6.13;;
20283;SDS011;10301;50.832;4.080;2023-12-04T12:07:48;9.67;;;5.23;;
20283;SDS011;10301;50.832;4.080;2023-12-04T12:10:15;11.87;;;5.77;;
20283;SDS011;10301;50.832;4.080;2023-12-04T12:12:44;9.13;;;5.50;;
20283;SDS011;10301;50.832;4.080;2023-12-04T12:15:11;10.37;;;5.30;;
20283;SDS011;10301;50.832;4.080;2023-12-04T12:17:37;7.77;;;4.47;;
20283;SDS011;10301;50.832;4.080;2023-12-04T12:20:05;9.60;;;5.23;;
20283;SDS011;10301;50.832;4.080;2023-12-04T12:22:36;12.50;;;5.53;;
20283;SDS011;10301;50.832;4.080;2023-12-04T12:25:06;12.37;;;6.23;;
20283;SDS011;10301;50.832;4.080;2023-12-04T12:27:33;12.87;;;5.53;;
20283;SDS011;10301;50.832;4.080;2023-12-04T12:29:59;9.97;;;5.60;;
20283;SDS011;10301;50.832;4.080;2023-12-04T12:32:26;10.97;;;5.83;;
20283;SDS011;10301;50.832;4.080;2023-12-04T12:34:55;8.50;;;5.20;;
20283;SDS011;10301;50.832;4.080;2023-12-04T12:37:21;9.40;;;5.00;;
20283;SDS011;10301;50.832;4.080;2023-12-04T12:39:46;10.07;;;5.00;;
20283;SDS011;10301;50.832;4.080;2023-12-04T12:42:20;10.90;;;5.30;;
20283;SDS011;10301;50.832;4.080;2023-12-04T12:44:49;8.20;;;4.90;;
20283;SDS011;10301;50.832;4.080;2023-12-04T12:47:15;11.67;;;4.77;;
20283;SDS011;10301;50.832;4.080;2023-12-04T12:49:41;8.90;;;4.80;;
20283;SDS011;10301;50.832;4.080;2023-12-04T12:52:07;10.07;;;4.80;;
20283;SDS011;10301;50.832;4.080;2023-12-04T12:54:42;8.37;;;4.37;;
20283;SDS011;10301;50.832;4.080;2023-12-04T12:57:09;8.83;;;4.57;;
20283;SDS011;10301;50.832;4.080;2023-12-04T12:59:37;8.47;;;4.53;;
20283;SDS011;10301;50.832;4.080;2023-12-04T13:02:03;8.87;;;5.57;;
20283;SDS011;10301;50.832;4.080;2023-12-04T13:04:36;7.90;;;4.93;;
20283;SDS011;10301;50.832;4.080;2023-12-04T13:07:03;7.20;;;4.40;;
20283;SDS011;10301;50.832;4.080;2023-12-04T13:09:30;8.23;;;4.90;;
20283;SDS011;10301;50.832;4.080;2023-12-04T13:11:56;9.33;;;5.10;;
20283;SDS011;10301;50.832;4.080;2023-12-04T13:14:22;10.50;;;5.10;;
20283;SDS011;10301;50.832;4.080;2023-12-04T13:16:48;7.90;;;4.40;;
20283;SDS011;10301;50.832;4.080;2023-12-04T13:19:14;9.93;;;4.80;;
20283;SDS011;10301;50.832;4.080;2023-12-04T13:21:42;13.57;;;5.50;;
20283;SDS011;10301;50.832;4.080;2023-12-04T13:24:10;15.30;;;5.33;;
20283;SDS011;10301;50.832;4.080;2023-12-04T13:26:37;9.20;;;4.90;;
20283;SDS011;10301;50.832;4.080;2023-12-04T13:29:02;9.13;;;4.73;;
20283;SDS011;10301;50.832;4.080;2023-12-04T13:31:28;8.17;;;4.60;;
20283;SDS011;10301;50.832;4.080;2023-12-04T13:33:54;9.60;;;4.37;;
20283;SDS011;10301;50.832;4.080;2023-12-04T13:36:20;6.97;;;4.50;;
20283;SDS011;10301;50.832;4.080;2023-12-04T13:38:45;11.27;;;4.37;;
20283;SDS011;10301;50.832;4.080;2023-12-04T13:41:11;6.97;;;4.23;;
20283;SDS011;10301;50.832;4.080;2023-12-04T13:43:55;8.03;;;4.13;;
20283;SDS011;10301;50.832;4.080;2023-12-04T13:46:24;8.93;;;5.20;;
20283;SDS011;10301;50.832;4.080;2023-12-04T13:48:51;7.70;;;4.10;;
20283;SDS011;10301;50.832;4.080;2023-12-04T13:51:17;8.27;;;4.93;;
20283;SDS011;10301;50.832;4.080;2023-12-04T13:53:44;7.30;;;4.30;;
20283;SDS011;10301;50.832;4.080;2023-12-04T13:56:14;10.17;;;4.70;;
20283;SDS011;10301;50.832;4.080;2023-12-04T13:58:45;6.57;;;3.90;;
20283;SDS011;10301;50.832;4.080;2023-12-04T14:01:14;9.67;;;4.60;;
20283;SDS011;10301;50.832;4.080;2023-12-04T14:03:41;10.13;;;4.50;;
20283;SDS011;10301;50.832;4.080;2023-12-04T14:06:08;7.77;;;3.87;;
20283;SDS011;10301;50.832;4.080;2023-12-04T14:08:34;7.20;;;4.40;;
20283;SDS011;10301;50.832;4.080;2023-12-04T14:11:01;9.17;;;3.93;;
20283;SDS011;10301;50.832;4.080;2023-12-04T14:13:27;7.93;;;4.10;;
20283;SDS011;10301;50.832;4.080;2023-12-04T14:15:53;6.53;;;3.70;;
20283;SDS011;10301;50.832;4.080;2023-12-04T14:18:19;11.53;;;3.90;;
20283;SDS011;10301;50.832;4.080;2023-12-04T14:20:45;6.23;;;3.87;;
20283;SDS011;10301;50.832;4.080;2023-12-04T14:23:12;7.43;;;4.13;;
20283;SDS011;10301;50.832;4.080;2023-12-04T14:25:39;13.33;;;4.50;;
20283;SDS011;10301;50.832;4.080;2023-12-04T14:28:05;6.87;;;3.83;;
20283;SDS011;10301;50.832;4.080;2023-12-04T14:30:32;8.07;;;3.93;;
20283;SDS011;10301;50.832;4.080;2023-12-04T14:32:58;9.87;;;4.43;;
20283;SDS011;10301;50.832;4.080;2023-12-04T14:35:23;6.87;;;4.10;;
20283;SDS011;10301;50.832;4.080;2023-12-04T14:37:49;11.70;;;4.43;;
20283;SDS011;10301;50.832;4.080;2023-12-04T14:40:17;9.10;;;4.40;;
20283;SDS011;10301;50.832;4.080;2023-12-04T14:42:45;7.97;;;4.87;;
20283;SDS011;10301;50.832;4.080;2023-12-04T14:45:11;14.53;;;4.50;;